Time;durP1;ratioP1;P1;durP2;ratioP2;P2;SDS_P1;SDS_P2;PMS_P1;PMS_P2;Temp;Humidity;BMP_temperature;BMP_pressure;BME280_temperature;BME280_humidity;BME280_pressure;Samples;Min_cycle;Max_cycle;Signal;HPM_P1;HPM_P2
2022/03/20 00:01:02;;;;;;;21.65;13.13;;;3.50;97.80;;;;;;5027262;28;20029;-61
2022/03/20 00:03:29;;;;;;;23.50;13.25;;;3.50;98.00;;;;;;5026706;28;20025;-61
2022/03/20 00:05:55;;;;;;;25.10;14.15;;;3.50;98.00;;;;;;5027860;28;20037;-60
2022/03/20 00:08:20;;;;;;;;;;;3.40;98.00;;;;;;5027563;28;20493;-61
2022/03/20 00:10:48;;;;;;;18.30;12.35;;;3.30;98.00;;;;;;5028096;28;19909;-61
2022/03/20 00:13:17;;;;;;;23.60;14.35;;;3.30;98.20;;;;;;5025504;28;20025;-59
2022/03/20 00:15:44;;;;;;;24.52;12.68;;;3.30;98.20;;;;;;5025286;28;20032;-62
2022/03/20 00:18:11;;;;;;;22.98;12.60;;;3.20;98.50;;;;;;5026315;28;20037;-62
2022/03/20 00:20:42;;;;;;;21.27;14.90;;;3.20;98.30;;;;;;5027316;28;20542;-62
2022/03/20 00:23:09;;;;;;;18.80;12.45;;;3.20;98.10;;;;;;5025662;28;20025;-62
2022/03/20 00:25:39;;;;;;;22.10;14.27;;;3.10;98.00;;;;;;5027148;28;20025;-61
2022/03/20 00:28:06;;;;;;;19.73;13.52;;;3.10;98.00;;;;;;5025405;28;20029;-62
2022/03/20 00:30:32;;;;;;;19.92;12.75;;;3.10;97.90;;;;;;5025848;28;20390;-61
2022/03/20 00:32:57;;;;;;;24.92;13.45;;;3.10;97.80;;;;;;5024482;28;20040;-61
2022/03/20 00:35:23;;;;;;;19.70;12.52;;;3.00;97.80;;;;;;5026448;28;20021;-59
2022/03/20 00:37:49;;;;;;;23.00;13.98;;;3.00;97.80;;;;;;5025093;28;20358;-60
2022/03/20 00:40:14;;;;;;;24.63;15.27;;;3.00;97.80;;;;;;5026004;28;20087;-61
2022/03/20 00:42:40;;;;;;;31.05;14.40;;;3.00;97.90;;;;;;5025694;28;20041;-61
2022/03/20 00:45:06;;;;;;;19.35;12.63;;;3.00;97.50;;;;;;5025376;28;20029;-58
2022/03/20 00:47:31;;;;;;;28.33;14.07;;;3.00;97.50;;;;;;5025472;28;20033;-61
2022/03/20 00:49:57;;;;;;;22.60;13.38;;;3.00;97.60;;;;;;5026265;28;20028;-61
2022/03/20 00:52:23;;;;;;;26.98;15.88;;;3.00;97.50;;;;;;5024614;28;20033;-61
2022/03/20 00:54:49;;;;;;;26.80;13.35;;;3.00;97.30;;;;;;5026441;28;20033;-60
2022/03/20 00:57:15;;;;;;;26.45;13.60;;;3.00;97.40;;;;;;5024816;28;20033;-60
2022/03/20 00:59:41;;;;;;;22.45;13.18;;;3.00;97.50;;;;;;5026904;28;20088;-61
2022/03/20 01:02:08;;;;;;;;;;;3.00;97.50;;;;;;5024307;28;20325;-60
2022/03/20 01:04:34;;;;;;;23.48;13.18;;;2.90;97.70;;;;;;5025426;28;19917;-61
2022/03/20 01:07:01;;;;;;;22.08;13.98;;;2.90;97.20;;;;;;5025578;28;20080;-61
2022/03/20 01:09:28;;;;;;;29.23;15.45;;;2.90;97.20;;;;;;5025536;28;20095;-61
2022/03/20 01:11:53;;;;;;;24.33;13.82;;;2.90;97.10;;;;;;5025181;28;20037;-61
2022/03/20 01:14:19;;;;;;;22.65;14.70;;;2.90;97.00;;;;;;5024720;28;20044;-60
2022/03/20 01:16:44;;;;;;;24.88;14.77;;;2.90;96.90;;;;;;5024657;28;20049;-60
2022/03/20 01:19:10;;;;;;;32.25;14.05;;;2.90;96.60;;;;;;5024782;28;20099;-60
2022/03/20 01:21:35;;;;;;;21.50;12.05;;;2.90;96.80;;;;;;5025079;28;20079;-60
2022/03/20 01:24:02;;;;;;;22.65;14.27;;;2.90;96.80;;;;;;5024301;28;20332;-59
2022/03/20 01:26:29;;;;;;;24.83;13.82;;;2.80;96.60;;;;;;5025137;28;20043;-61
2022/03/20 01:28:54;;;;;;;23.25;14.40;;;2.80;96.90;;;;;;5026980;28;20044;-60
2022/03/20 01:31:20;;;;;;;21.83;12.50;;;2.80;96.50;;;;;;5023743;28;20025;-59
2022/03/20 01:33:45;;;;;;;22.88;13.00;;;2.80;96.50;;;;;;5025620;28;20037;-62
2022/03/20 01:36:11;;;;;;;23.25;12.73;;;2.80;96.40;;;;;;5024786;28;20040;-60
2022/03/20 01:38:36;;;;;;;20.83;13.70;;;2.80;96.40;;;;;;5025739;28;20041;-62
2022/03/20 01:41:02;;;;;;;21.85;13.35;;;2.80;96.30;;;;;;5023777;28;20034;-60
2022/03/20 01:43:28;;;;;;;24.23;13.68;;;2.70;96.40;;;;;;5025212;28;20104;-62
2022/03/20 01:45:53;;;;;;;22.88;13.75;;;2.70;96.30;;;;;;5022575;28;20030;-59
2022/03/20 01:48:19;;;;;;;22.10;14.70;;;2.70;96.40;;;;;;5025766;28;20130;-62
2022/03/20 01:50:45;;;;;;;22.58;14.35;;;2.60;96.10;;;;;;5024692;28;20445;-60
2022/03/20 01:53:11;;;;;;;23.52;12.43;;;2.60;96.10;;;;;;5022228;28;20036;-60
2022/03/20 01:55:37;;;;;;;19.52;12.10;;;2.60;96.10;;;;;;5026235;28;20548;-60
2022/03/20 01:58:03;;;;;;;24.75;14.27;;;2.60;95.90;;;;;;5024766;28;20021;-61
2022/03/20 02:00:31;;;;;;;24.30;13.32;;;2.50;96.10;;;;;;5025176;28;20026;-61
2022/03/20 02:02:57;;;;;;;27.58;14.98;;;2.50;96.00;;;;;;5023609;28;20083;-60
2022/03/20 02:05:22;;;;;;;23.95;13.13;;;2.50;96.00;;;;;;5024398;28;20021;-60
2022/03/20 02:07:48;;;;;;;21.30;12.20;;;2.40;96.10;;;;;;5025962;28;20037;-61
2022/03/20 02:10:15;;;;;;;28.15;13.40;;;2.40;96.20;;;;;;5024528;28;20440;-61
2022/03/20 02:12:41;;;;;;;26.25;13.52;;;2.40;96.10;;;;;;5024420;28;20108;-61
2022/03/20 02:15:10;;;;;;;22.95;13.73;;;2.40;95.80;;;;;;5022642;28;20035;-58
2022/03/20 02:17:38;;;;;;;22.45;13.57;;;2.40;95.60;;;;;;5023809;28;20461;-61
2022/03/20 02:20:08;;;;;;;21.95;13.55;;;2.40;95.70;;;;;;5024974;28;20056;-61
2022/03/20 02:22:37;;;;;;;20.88;12.80;;;2.30;95.60;;;;;;5025014;28;20486;-60
2022/03/20 02:25:08;;;;;;;23.23;11.43;;;2.40;95.20;;;;;;5025036;28;20774;-61
2022/03/20 02:27:34;;;;;;;32.67;14.10;;;2.30;95.00;;;;;;5026437;28;20035;-62
2022/03/20 02:30:06;;;;;;;24.02;13.88;;;2.30;94.90;;;;;;5025662;28;20029;-60
2022/03/20 02:32:32;;;;;;;27.08;13.27;;;2.30;94.90;;;;;;5022493;28;20296;-62
2022/03/20 02:35:04;;;;;;;31.75;13.10;;;2.30;94.90;;;;;;5024351;28;20067;-61
2022/03/20 02:37:30;;;;;;;24.90;14.45;;;2.30;94.30;;;;;;5025103;28;20889;-62
2022/03/20 02:39:58;;;;;;;32.25;15.48;;;2.30;94.60;;;;;;5024115;28;20029;-61
2022/03/20 02:42:26;;;;;;;19.65;12.52;;;2.30;94.30;;;;;;5023535;28;20099;-61
2022/03/20 02:45:08;;;;;;;27.80;14.18;;;2.30;94.30;;;;;;5024069;28;20033;-62
2022/03/20 02:47:37;;;;;;;25.70;14.85;;;2.20;93.80;;;;;;5022883;28;20087;-61
2022/03/20 02:50:12;;;;;;;21.77;12.82;;;2.30;93.80;;;;;;5024092;28;20075;-60
2022/03/20 02:52:51;;;;;;;20.80;13.03;;;2.20;93.90;;;;;;5024126;28;20025;-61
2022/03/20 02:55:38;;;;;;;27.33;14.13;;;2.20;93.40;;;;;;5025687;28;20047;-62
2022/03/20 02:58:10;;;;;;;20.75;12.70;;;2.20;93.00;;;;;;5029603;28;20053;-60
2022/03/20 03:00:37;;;;;;;20.63;11.90;;;2.20;92.30;;;;;;5027100;28;20060;-61
2022/03/20 03:03:04;;;;;;;20.75;10.75;;;2.30;92.20;;;;;;5026532;28;20103;-62
2022/03/20 03:05:30;;;;;;;33.22;14.23;;;2.30;91.40;;;;;;5028156;28;20390;-61
2022/03/20 03:10:56;;;;;;;21.10;11.70;;;2.40;90.80;;;;;;5029653;28;20167;-62
2022/03/20 03:13:42;;;;;;;18.58;10.70;;;2.40;90.40;;;;;;5027422;28;20042;-61
2022/03/20 03:16:13;;;;;;;24.40;12.32;;;2.40;90.70;;;;;;5027054;28;20037;-61
2022/03/20 03:18:41;;;;;;;26.50;12.93;;;2.40;90.10;;;;;;5028043;28;20465;-62
2022/03/20 03:21:10;;;;;;;25.27;12.93;;;2.40;90.50;;;;;;5027630;28;20032;-59
2022/03/20 03:23:38;;;;;;;25.00;12.38;;;2.30;90.10;;;;;;5027887;28;20028;-61
2022/03/20 03:26:05;;;;;;;16.35;8.93;;;2.30;90.00;;;;;;5028438;28;20124;-60
2022/03/20 03:28:34;;;;;;;28.35;13.63;;;2.30;88.60;;;;;;5028502;28;20048;-59
2022/03/20 03:31:01;;;;;;;20.60;11.70;;;2.30;88.70;;;;;;5027397;28;20067;-61
2022/03/20 03:33:27;;;;;;;17.70;12.43;;;2.30;87.60;;;;;;5027196;28;20472;-61
2022/03/20 03:35:57;;;;;;;20.98;11.65;;;2.30;86.80;;;;;;5026209;28;20483;-61
2022/03/20 03:38:30;;;;;;;24.23;11.52;;;2.30;87.30;;;;;;5024780;28;20061;-60
2022/03/20 03:40:57;;;;;;;21.80;11.57;;;2.30;86.70;;;;;;5028223;28;20037;-59
2022/03/20 03:43:24;;;;;;;22.10;12.93;;;2.30;87.10;;;;;;5025743;28;20052;-59
2022/03/20 03:45:50;;;;;;;18.42;12.48;;;2.30;86.90;;;;;;5027630;28;20569;-61
2022/03/20 03:48:16;;;;;;;21.05;11.70;;;2.20;87.40;;;;;;5027148;28;20121;-59
2022/03/20 03:50:44;;;;;;;24.27;12.80;;;2.20;87.00;;;;;;5027151;28;20079;-61
2022/03/20 03:53:09;;;;;;;21.67;11.38;;;2.20;86.80;;;;;;5025866;28;20045;-60
2022/03/20 03:55:36;;;;;;;21.30;12.07;;;2.20;86.80;;;;;;5028067;28;20033;-61
2022/03/20 03:58:03;;;;;;;20.95;11.13;;;2.10;86.50;;;;;;5027373;28;20112;-59
2022/03/20 04:00:32;;;;;;;22.60;12.20;;;2.10;87.70;;;;;;5028859;28;20033;-61
2022/03/20 04:02:58;;;;;;;20.23;11.55;;;2.10;86.20;;;;;;5027106;28;20025;-61
2022/03/20 04:05:23;;;;;;;24.52;11.77;;;2.10;86.70;;;;;;5027294;28;20049;-61
2022/03/20 04:07:49;;;;;;;20.17;11.52;;;2.10;86.70;;;;;;5028950;28;20124;-61
2022/03/20 04:10:17;;;;;;;22.77;12.45;;;2.00;87.70;;;;;;5024787;28;20032;-61
2022/03/20 04:12:45;;;;;;;22.50;13.50;;;2.10;87.30;;;;;;5027760;28;20041;-61
2022/03/20 04:15:12;;;;;;;20.70;12.30;;;2.00;87.90;;;;;;5026127;28;20144;-59
2022/03/20 04:17:39;;;;;;;22.45;12.18;;;2.00;87.60;;;;;;5027414;28;20025;-59
2022/03/20 04:20:06;;;;;;;24.35;12.30;;;2.00;88.20;;;;;;5026141;28;20036;-60
2022/03/20 04:22:33;;;;;;;26.08;14.25;;;2.00;87.20;;;;;;5027528;28;20080;-61
2022/03/20 04:24:59;;;;;;;25.42;12.00;;;2.00;87.60;;;;;;5027331;28;20041;-61
2022/03/20 04:27:25;;;;;;;24.15;13.27;;;2.10;85.80;;;;;;5026439;28;20072;-59
2022/03/20 04:29:52;;;;;;;21.60;11.85;;;2.10;86.10;;;;;;5027305;28;20041;-60
2022/03/20 04:32:18;;;;;;;25.33;12.88;;;2.10;85.10;;;;;;5024875;28;20033;-61
2022/03/20 04:34:44;;;;;;;26.63;14.32;;;2.20;84.90;;;;;;5026552;28;20025;-60
2022/03/20 04:37:11;;;;;;;22.92;12.77;;;2.20;83.40;;;;;;5025989;28;20623;-59
2022/03/20 04:39:38;;;;;;;24.23;12.27;;;2.20;82.90;;;;;;5024994;28;20376;-61
2022/03/20 04:42:04;;;;;;;20.63;12.55;;;2.30;83.30;;;;;;5026347;28;20057;-62
2022/03/20 04:44:30;;;;;;;20.35;11.40;;;2.20;83.60;;;;;;5024314;28;20047;-59
2022/03/20 04:46:55;;;;;;;;;;;2.20;82.80;;;;;;5026985;28;20313;-62
2022/03/20 05:00:25;;;;;;;22.05;11.88;;;2.20;82.70;;;;;;5023782;28;20683;-61
2022/03/20 05:02:51;;;;;;;25.02;13.63;;;2.20;83.20;;;;;;5025078;28;20049;-59
2022/03/20 05:05:18;;;;;;;23.17;13.00;;;2.20;82.60;;;;;;5025834;28;20029;-59
2022/03/20 05:07:44;;;;;;;19.73;10.55;;;2.20;83.00;;;;;;5026055;28;20036;-60
2022/03/20 05:15:39;;;;;;;27.35;12.90;;;2.20;83.30;;;;;;5024767;28;20505;-58
2022/03/20 05:18:06;;;;;;;22.80;13.15;;;2.20;83.40;;;;;;5024381;28;20044;-61
2022/03/20 05:20:32;;;;;;;23.70;12.65;;;2.10;83.30;;;;;;5039248;28;20121;-59
2022/03/20 05:22:59;;;;;;;24.48;13.35;;;2.10;82.80;;;;;;5025718;28;20500;-59
2022/03/20 05:25:26;;;;;;;22.90;12.00;;;2.10;82.60;;;;;;5024726;28;20045;-60
2022/03/20 05:27:51;;;;;;;21.33;13.73;;;2.10;83.50;;;;;;5041622;23;20037;-55
2022/03/20 05:30:17;;;;;;;27.08;14.05;;;2.10;83.20;;;;;;5030731;28;20044;-53
2022/03/20 05:32:42;;;;;;;27.98;13.50;;;2.10;83.60;;;;;;5034406;28;20057;-52
2022/03/20 05:35:09;;;;;;;24.23;12.65;;;2.00;84.40;;;;;;5031541;28;20105;-56
2022/03/20 05:37:36;;;;;;;25.17;12.90;;;2.00;84.70;;;;;;5020689;28;20033;-52
2022/03/20 05:40:04;;;;;;;20.52;12.95;;;2.00;84.70;;;;;;5009851;28;20034;-51
2022/03/20 05:42:29;;;;;;;22.13;11.88;;;2.00;84.00;;;;;;5015030;28;20031;-52
2022/03/20 05:44:55;;;;;;;19.85;11.73;;;2.00;83.50;;;;;;5012385;28;20022;-56
2022/03/20 05:47:20;;;;;;;23.13;14.15;;;2.10;83.90;;;;;;5009425;28;20028;-52
2022/03/20 05:49:46;;;;;;;20.77;12.90;;;2.10;83.80;;;;;;5009317;28;20049;-53
2022/03/20 05:52:13;;;;;;;23.40;12.73;;;2.10;83.60;;;;;;5008652;28;20519;-50
2022/03/20 05:54:39;;;;;;;20.02;12.57;;;2.10;83.10;;;;;;5013298;28;20111;-53
2022/03/20 05:59:53;;;;;;;22.98;13.57;;;2.10;83.20;;;;;;5014336;28;20060;-54
2022/03/20 06:02:19;;;;;;;26.83;13.32;;;2.10;83.30;;;;;;5007396;28;20451;-53
2022/03/20 06:04:45;;;;;;;;;;;2.10;83.80;;;;;;5007802;28;20032;-50
2022/03/20 06:07:10;;;;;;;20.35;11.00;;;2.10;84.00;;;;;;5007648;28;19913;-53
2022/03/20 06:09:37;;;;;;;16.40;11.15;;;2.10;83.10;;;;;;5010366;28;20055;-51
2022/03/20 06:12:03;;;;;;;28.25;14.68;;;2.20;83.20;;;;;;5008177;28;20045;-52
2022/03/20 06:14:29;;;;;;;23.23;12.23;;;2.20;83.30;;;;;;5011067;28;20026;-56
2022/03/20 06:16:54;;;;;;;27.60;11.02;;;2.20;83.30;;;;;;5007313;28;20035;-50
2022/03/20 06:19:20;;;;;;;24.90;14.82;;;2.30;83.20;;;;;;5007913;28;20030;-53
2022/03/20 06:21:46;;;;;;;27.63;12.90;;;2.30;83.60;;;;;;5007735;28;20066;-52
2022/03/20 06:24:12;;;;;;;20.05;11.30;;;2.30;83.20;;;;;;5006472;28;20068;-55
2022/03/20 06:26:38;;;;;;;;;;;2.30;83.50;;;;;;5014249;28;20056;-56
2022/03/20 06:29:05;;;;;;;23.90;14.27;;;2.30;83.50;;;;;;5008855;28;20618;-55
2022/03/20 06:31:31;;;;;;;26.67;12.50;;;2.40;83.40;;;;;;5018604;28;20022;-54
2022/03/20 06:33:57;;;;;;;18.52;11.13;;;2.40;83.50;;;;;;5013014;28;20041;-51
2022/03/20 06:36:22;;;;;;;26.63;13.80;;;2.40;83.10;;;;;;5011141;28;20064;-52
2022/03/20 06:38:48;;;;;;;25.85;13.32;;;2.50;83.60;;;;;;5012656;28;20578;-51
2022/03/20 06:41:13;;;;;;;23.13;12.98;;;2.50;82.90;;;;;;5012761;28;20044;-49
2022/03/20 06:43:39;;;;;;;19.15;11.30;;;2.60;82.50;;;;;;5018990;28;20029;-53
2022/03/20 06:46:06;;;;;;;25.42;13.27;;;2.70;81.80;;;;;;5018329;28;20491;-53
2022/03/20 06:48:32;;;;;;;28.90;16.30;;;2.70;81.80;;;;;;5018140;28;20243;-49
2022/03/20 06:50:58;;;;;;;29.50;13.68;;;2.70;82.10;;;;;;5015549;28;20041;-51
2022/03/20 06:53:24;;;;;;;26.92;13.98;;;2.80;82.00;;;;;;5014034;28;20037;-52
2022/03/20 06:55:51;;;;;;;27.05;12.63;;;2.80;82.40;;;;;;5019264;28;20037;-52
2022/03/20 06:58:17;;;;;;;24.85;13.88;;;2.80;81.30;;;;;;5014993;28;20034;-49
2022/03/20 07:00:43;;;;;;;;;;;2.90;81.80;;;;;;5018282;28;20088;-54
2022/03/20 07:03:09;;;;;;;27.90;13.40;;;3.00;81.50;;;;;;5016924;28;19909;-50
2022/03/20 07:05:35;;;;;;;;;;;3.00;81.30;;;;;;5017685;28;20032;-51
2022/03/20 07:08:02;;;;;;;23.67;11.88;;;3.10;80.80;;;;;;5015812;28;20362;-54
2022/03/20 07:10:27;;;;;;;26.60;15.27;;;3.20;80.60;;;;;;5017801;28;20038;-52
2022/03/20 07:13:48;;;;;;;26.27;13.57;;;3.20;80.70;;;;;;5014945;28;20037;-53
2022/03/20 07:15:45;;;;;;;30.20;14.18;;;3.30;80.80;;;;;;5009396;28;20048;-56
2022/03/20 07:18:12;;;;;;;31.90;15.70;;;3.40;81.10;;;;;;5013867;28;20028;-55
2022/03/20 07:20:39;;;;;;;25.13;13.60;;;3.50;81.80;;;;;;5009570;28;20033;-53
2022/03/20 07:23:09;;;;;;;26.60;14.15;;;3.60;82.80;;;;;;5014512;28;20022;-55
2022/03/20 07:31:09;;;;;;;26.55;15.13;;;3.80;81.40;;;;;;5011648;28;20165;-55
2022/03/20 07:33:35;;;;;;;26.15;16.05;;;3.90;80.60;;;;;;5012345;28;20022;-55
2022/03/20 07:36:01;;;;;;;25.33;15.63;;;4.00;83.40;;;;;;5011332;28;20021;-54
2022/03/20 07:38:27;;;;;;;;;;;4.10;81.50;;;;;;5010840;28;20018;-53
2022/03/20 07:40:53;;;;;;;27.27;14.90;;;4.20;80.60;;;;;;5009492;28;19913;-50
2022/03/20 07:43:18;;;;;;;23.77;13.65;;;4.40;83.00;;;;;;5014095;28;20041;-53
2022/03/20 07:45:44;;;;;;;23.25;15.25;;;4.40;82.20;;;;;;5009101;28;20053;-55
2022/03/20 07:48:10;;;;;;;29.90;16.02;;;4.50;83.00;;;;;;5010623;28;20350;-54
2022/03/20 07:50:35;;;;;;;32.38;17.73;;;4.60;81.20;;;;;;5009313;28;20057;-56
2022/03/20 07:53:01;;;;;;;27.67;17.95;;;4.70;84.90;;;;;;5009202;28;20044;-54
2022/03/20 07:55:30;;;;;;;26.45;13.85;;;4.80;81.90;;;;;;5008443;28;20480;-54
2022/03/20 07:57:57;;;;;;;28.73;13.88;;;4.90;81.80;;;;;;5010522;28;20509;-53
2022/03/20 08:00:23;;;;;;;23.70;14.95;;;5.00;79.10;;;;;;5009618;28;20041;-48
2022/03/20 08:02:50;;;;;;;28.38;15.43;;;5.10;79.60;;;;;;5015595;28;20116;-56
2022/03/20 08:05:17;;;;;;;25.05;15.68;;;5.20;76.50;;;;;;4998826;28;20094;-50
2022/03/20 08:07:43;;;;;;;26.90;15.13;;;5.30;78.40;;;;;;5008813;28;20541;-53
2022/03/20 08:10:10;;;;;;;32.28;16.95;;;5.40;77.90;;;;;;5013955;28;20072;-56
2022/03/20 08:12:36;;;;;;;28.50;15.80;;;5.50;77.60;;;;;;5010765;28;20041;-54
2022/03/20 08:15:03;;;;;;;25.67;14.77;;;5.60;79.80;;;;;;5014947;28;20029;-51
2022/03/20 08:17:29;;;;;;;30.65;15.43;;;5.70;75.60;;;;;;5009181;28;20032;-55
2022/03/20 08:19:56;;;;;;;26.00;17.75;;;5.80;76.40;;;;;;5011218;28;20487;-52
2022/03/20 08:22:21;;;;;;;;;;;6.00;71.80;;;;;;5011228;28;20049;-55
2022/03/20 08:24:48;;;;;;;21.73;14.77;;;6.10;73.40;;;;;;5009098;28;19915;-54
2022/03/20 08:27:14;;;;;;;26.20;15.50;;;6.20;72.10;;;;;;5011771;28;20033;-48
2022/03/20 08:29:40;;;;;;;25.67;15.23;;;6.30;72.10;;;;;;5011702;28;20029;-54
2022/03/20 08:32:07;;;;;;;28.23;15.80;;;6.40;71.70;;;;;;5009215;28;20034;-55
2022/03/20 08:34:32;;;;;;;35.13;17.02;;;6.50;69.40;;;;;;5010592;28;20110;-52
2022/03/20 08:36:58;;;;;;;22.92;15.23;;;6.70;70.10;;;;;;5015169;28;20033;-55
2022/03/20 08:39:23;;;;;;;26.38;16.75;;;6.80;67.50;;;;;;5010376;28;20506;-54
2022/03/20 08:41:49;;;;;;;27.02;15.05;;;7.00;67.20;;;;;;5014639;28;20049;-51
2022/03/20 08:44:14;;;;;;;33.70;18.05;;;7.20;70.70;;;;;;5013200;28;20385;-52
2022/03/20 08:46:40;;;;;;;27.13;14.75;;;7.40;70.10;;;;;;5016702;28;20030;-53
2022/03/20 08:49:07;;;;;;;31.33;16.85;;;7.70;67.60;;;;;;5014095;28;20553;-48
2022/03/20 08:51:34;;;;;;;28.83;15.52;;;7.90;67.10;;;;;;5012222;28;20403;-54
2022/03/20 08:54:01;;;;;;;24.40;15.32;;;8.10;63.30;;;;;;5011578;28;20064;-52
2022/03/20 08:56:27;;;;;;;27.13;16.15;;;8.10;60.70;;;;;;5009572;28;20033;-53
2022/03/20 08:58:53;;;;;;;;;;;8.00;61.90;;;;;;5010599;28;20052;-50
2022/03/20 09:01:19;;;;;;;31.15;16.23;;;8.00;59.00;;;;;;5012712;28;20469;-52
2022/03/20 09:03:45;;;;;;;26.27;15.20;;;8.00;59.70;;;;;;5009925;28;20387;-50
2022/03/20 09:06:11;;;;;;;19.15;14.05;;;8.10;60.80;;;;;;5009253;28;20497;-48
2022/03/20 09:08:37;;;;;;;21.55;15.45;;;8.30;58.70;;;;;;5008491;28;20106;-49
2022/03/20 09:11:03;;;;;;;23.80;14.35;;;8.50;58.40;;;;;;5008355;28;20022;-52
2022/03/20 09:13:28;;;;;;;;;;;8.50;57.80;;;;;;5012117;28;20032;-54
2022/03/20 09:21:28;;;;;;;30.77;14.38;;;8.50;54.90;;;;;;5011278;28;20037;-51
2022/03/20 09:23:54;;;;;;;23.58;13.40;;;8.50;54.70;;;;;;5007465;28;20029;-49
2022/03/20 09:26:20;;;;;;;21.00;12.85;;;8.60;52.90;;;;;;5009700;28;20025;-50
2022/03/20 09:28:46;;;;;;;24.92;14.50;;;8.60;53.00;;;;;;5012739;28;20042;-50
2022/03/20 09:31:13;;;;;;;22.52;14.73;;;8.70;53.20;;;;;;5010088;28;21658;-51
2022/03/20 09:33:39;;;;;;;24.63;14.60;;;8.70;52.10;;;;;;5008634;28;20711;-52
2022/03/20 09:36:05;;;;;;;21.80;13.65;;;8.70;52.90;;;;;;5010681;28;20033;-51
2022/03/20 09:38:31;;;;;;;25.20;14.18;;;8.80;51.10;;;;;;5008022;28;20025;-50
2022/03/20 09:41:03;;;;;;;23.30;13.25;;;8.80;52.30;;;;;;5011468;28;20054;-53
2022/03/20 09:43:31;;;;;;;24.23;14.60;;;8.90;52.40;;;;;;5008252;28;20038;-49
2022/03/20 09:45:57;;;;;;;26.33;15.25;;;9.00;49.90;;;;;;5008173;28;20403;-51
2022/03/20 09:48:22;;;;;;;17.77;12.32;;;9.00;50.80;;;;;;5009334;28;20026;-48
2022/03/20 09:50:49;;;;;;;;;;;9.10;49.90;;;;;;5012433;28;20144;-51
2022/03/20 09:53:14;;;;;;;23.25;14.15;;;9.20;50.00;;;;;;5010274;28;19915;-55
2022/03/20 09:55:40;;;;;;;20.20;13.40;;;9.20;50.20;;;;;;5008187;28;20112;-51
2022/03/20 09:58:06;;;;;;;24.58;14.40;;;9.20;51.30;;;;;;5010231;28;20390;-48
2022/03/20 10:00:32;;;;;;;21.70;14.38;;;9.40;51.20;;;;;;5012277;28;20510;-55
2022/03/20 10:02:57;;;;;;;23.05;15.48;;;9.50;49.80;;;;;;5016704;28;20033;-52
2022/03/20 10:05:27;;;;;;;20.50;13.80;;;9.50;50.20;;;;;;5008979;28;20501;-53
2022/03/20 10:07:53;;;;;;;18.25;13.63;;;9.60;50.90;;;;;;5011358;28;20202;-54
2022/03/20 10:10:25;;;;;;;22.52;12.90;;;9.80;50.50;;;;;;5014156;28;20033;-53
2022/03/20 10:12:53;;;;;;;21.83;12.70;;;9.90;49.80;;;;;;5013543;28;20046;-52
2022/03/20 10:15:33;;;;;;;21.88;13.02;;;10.00;47.70;;;;;;5016579;28;20084;-53
2022/03/20 10:18:17;;;;;;;19.67;12.75;;;10.10;47.00;;;;;;5015572;28;20490;-53
2022/03/20 10:20:47;;;;;;;20.63;12.63;;;10.10;47.30;;;;;;5007468;28;20041;-51
2022/03/20 10:23:32;;;;;;;21.92;13.20;;;10.10;46.80;;;;;;5008238;28;20542;-49
2022/03/20 10:26:00;;;;;;;18.77;13.10;;;10.20;47.10;;;;;;5012814;28;20022;-54
2022/03/20 10:28:55;;;;;;;23.05;13.48;;;10.20;45.70;;;;;;5012266;28;20030;-52
2022/03/20 10:31:21;;;;;;;18.30;10.95;;;10.30;46.00;;;;;;5007560;28;20042;-51
2022/03/20 10:34:03;;;;;;;;;;;10.40;45.90;;;;;;5010181;28;20107;-54
2022/03/20 10:36:29;;;;;;;19.92;11.70;;;10.30;46.00;;;;;;5010965;28;19920;-53
2022/03/20 10:38:55;;;;;;;;;;;10.50;45.80;;;;;;5010045;28;20029;-54
2022/03/20 10:41:26;;;;;;;16.90;11.85;;;10.50;45.00;;;;;;5007503;28;20020;-54
2022/03/20 10:43:53;;;;;;;24.92;11.07;;;10.60;45.60;;;;;;5008936;28;20044;-52
2022/03/20 10:46:23;;;;;;;19.30;10.50;;;10.60;44.70;;;;;;5011843;28;20036;-51
2022/03/20 10:48:52;;;;;;;20.33;14.52;;;10.60;45.40;;;;;;5007501;28;20042;-50
2022/03/20 10:51:39;;;;;;;17.65;12.55;;;10.60;44.90;;;;;;5009677;28;20022;-53
2022/03/20 10:54:07;;;;;;;16.02;11.80;;;10.70;45.70;;;;;;5009457;28;20096;-49
2022/03/20 10:56:34;;;;;;;18.90;13.43;;;10.80;45.50;;;;;;5008557;28;20632;-49
2022/03/20 10:59:10;;;;;;;15.05;11.65;;;10.90;44.20;;;;;;5008449;28;20121;-53
2022/03/20 11:01:37;;;;;;;19.95;12.20;;;11.00;44.50;;;;;;5013033;28;20057;-55
2022/03/20 11:04:04;;;;;;;17.25;11.65;;;11.10;43.90;;;;;;5008022;28;20615;-53
2022/03/20 11:06:30;;;;;;;17.60;12.32;;;11.00;44.40;;;;;;5013467;28;20101;-53
2022/03/20 11:08:56;;;;;;;;;;;11.20;44.10;;;;;;5008122;28;20470;-48
2022/03/20 11:11:23;;;;;;;14.80;10.30;;;11.40;43.60;;;;;;5006936;28;19991;-53
2022/03/20 11:13:50;;;;;;;17.02;10.57;;;11.50;42.70;;;;;;5006123;28;20033;-52
2022/03/20 11:16:23;;;;;;;14.55;10.00;;;11.60;41.00;;;;;;5009235;28;20041;-55
2022/03/20 11:18:52;;;;;;;20.70;9.00;;;11.60;41.30;;;;;;5013342;28;20040;-55
2022/03/20 11:21:22;;;;;;;16.20;10.95;;;11.70;42.00;;;;;;5011182;28;20022;-51
2022/03/20 11:23:49;;;;;;;18.00;11.13;;;11.80;41.80;;;;;;5011838;28;20029;-52
2022/03/20 11:26:18;;;;;;;16.90;11.32;;;11.90;41.00;;;;;;5019638;28;20034;-51
2022/03/20 11:28:48;;;;;;;17.80;10.50;;;11.90;41.10;;;;;;5012701;28;20040;-51
2022/03/20 11:31:14;;;;;;;16.80;11.07;;;11.80;40.50;;;;;;5016403;28;20546;-56
2022/03/20 11:33:43;;;;;;;17.58;10.40;;;11.80;40.00;;;;;;5017959;28;20051;-55
2022/03/20 11:36:11;;;;;;;19.27;11.07;;;11.80;41.70;;;;;;5018220;28;20033;-54
2022/03/20 11:38:37;;;;;;;14.95;10.35;;;11.70;41.40;;;;;;5016716;28;20172;-53
2022/03/20 11:41:12;;;;;;;;;;;11.80;40.20;;;;;;5018794;28;20493;-56
2022/03/20 11:43:41;;;;;;;14.07;9.85;;;11.80;41.30;;;;;;5019129;28;19912;-53
2022/03/20 11:46:16;;;;;;;16.05;11.23;;;11.90;41.20;;;;;;5011646;28;20041;-53
2022/03/20 11:48:41;;;;;;;18.08;10.13;;;11.90;40.50;;;;;;5021819;28;20155;-54
2022/03/20 11:51:08;;;;;;;;;;;11.90;40.50;;;;;;5014573;28;20120;-53
2022/03/20 11:53:37;;;;;;;16.42;10.70;;;11.90;40.30;;;;;;5013900;28;20011;-54
2022/03/20 11:56:02;;;;;;;14.73;9.68;;;11.80;40.20;;;;;;5018131;28;20048;-51
2022/03/20 11:58:35;;;;;;;;;;;11.80;40.80;;;;;;5016910;28;20033;-55
2022/03/20 12:01:06;;;;;;;16.38;10.10;;;11.90;40.20;;;;;;5015002;28;19913;-54
2022/03/20 12:03:55;;;;;;;16.48;10.30;;;11.90;40.20;;;;;;5010332;28;20021;-52
2022/03/20 12:06:49;;;;;;;16.48;10.30;;;12.00;39.80;;;;;;5014809;28;20553;-53
2022/03/20 12:09:39;;;;;;;16.52;9.68;;;12.10;39.60;;;;;;5017209;28;20022;-54
2022/03/20 12:12:44;;;;;;;11.82;9.23;;;12.20;39.50;;;;;;5017387;28;20124;-52
2022/03/20 12:15:10;;;;;;;14.05;8.88;;;12.30;40.60;;;;;;5013314;28;20026;-54
2022/03/20 12:17:59;;;;;;;15.63;9.18;;;12.30;40.20;;;;;;5011581;28;20029;-54
2022/03/20 12:20:51;;;;;;;17.98;8.70;;;12.40;39.00;;;;;;5011907;28;20032;-53
2022/03/20 12:23:39;;;;;;;15.18;11.13;;;12.40;38.90;;;;;;5014454;28;20080;-54
2022/03/20 12:26:24;;;;;;;25.20;16.30;;;12.40;39.40;;;;;;5011348;28;20026;-54
2022/03/20 12:28:49;;;;;;;15.95;9.30;;;12.40;38.70;;;;;;5011797;28;20941;-55
2022/03/20 12:31:27;;;;;;;;;;;12.40;39.40;;;;;;5017055;28;20290;-51
2022/03/20 12:34:21;;;;;;;14.98;9.68;;;12.40;39.50;;;;;;5020633;28;20008;-54
2022/03/20 12:36:46;;;;;;;30.25;11.55;;;12.50;39.50;;;;;;5018753;28;20441;-56
2022/03/20 12:39:12;;;;;;;;;;;12.50;39.30;;;;;;5018148;28;20026;-55
2022/03/20 12:41:37;;;;;;;18.50;9.95;;;12.50;39.60;;;;;;5012556;28;19913;-64
2022/03/20 12:44:07;;;;;;;;;;;12.60;40.50;;;;;;5017531;28;20037;-52
2022/03/20 12:46:37;;;;;;;16.48;8.75;;;12.60;39.10;;;;;;5012335;28;19913;-50
2022/03/20 12:49:03;;;;;;;17.38;10.85;;;12.70;40.40;;;;;;5011450;28;20683;-56
2022/03/20 12:51:36;;;;;;;16.35;10.70;;;12.70;39.80;;;;;;5007778;28;20034;-54
2022/03/20 12:54:11;;;;;;;17.58;10.20;;;12.70;38.70;;;;;;5018621;28;20431;-55
2022/03/20 12:57:03;;;;;;;15.60;11.10;;;12.70;39.60;;;;;;5016323;28;20026;-54
2022/03/20 12:59:29;;;;;;;15.48;10.60;;;12.80;40.10;;;;;;5015047;28;20034;-51
2022/03/20 13:01:55;;;;;;;;;;;12.80;40.00;;;;;;5009207;28;20033;-56
2022/03/20 13:04:21;;;;;;;12.43;8.70;;;12.90;39.20;;;;;;5009639;28;19971;-51
2022/03/20 13:06:47;;;;;;;;;;;12.90;38.30;;;;;;5013695;28;20439;-51
2022/03/20 13:09:13;;;;;;;15.23;9.60;;;12.80;38.90;;;;;;5010222;28;19913;-53
2022/03/20 13:11:51;;;;;;;16.13;9.43;;;12.80;39.00;;;;;;5016432;28;20053;-53
2022/03/20 13:14:17;;;;;;;17.95;11.63;;;12.90;38.50;;;;;;5013167;28;20034;-54
2022/03/20 13:16:52;;;;;;;;;;;12.90;37.70;;;;;;5010445;28;20497;-56
2022/03/20 13:19:44;;;;;;;11.07;8.25;;;12.90;38.50;;;;;;5013149;28;19936;-51
2022/03/20 13:22:12;;;;;;;11.00;8.52;;;13.00;37.80;;;;;;5006025;28;20131;-51